Time;durP1;ratioP1;P1;durP2;ratioP2;P2;SDS_P1;SDS_P2;PMS_P1;PMS_P2;Temp;Humidity;BMP_temperature;BMP_pressure;BME280_temperature;BME280_humidity;BME280_pressure;Samples;Min_cycle;Max_cycle;Signal;HPM_P1;HPM_P2
2021/06/25 00:00:21;;;;;;;3.20;1.90;;;;;;;17.29;65.16;97311.22;5034631;28;20371;-59
2021/06/25 00:02:46;;;;;;;4.15;2.20;;;;;;;17.37;63.73;97303.06;5033346;28;20036;-59
2021/06/25 00:05:12;;;;;;;3.47;1.80;;;;;;;17.40;63.74;97302.75;5034874;28;20106;-60
2021/06/25 00:07:37;;;;;;;3.05;1.80;;;;;;;17.45;63.69;97294.09;5034533;28;20029;-59
2021/06/25 00:10:05;;;;;;;3.67;1.90;;;;;;;17.50;62.98;97289.84;5034617;28;20037;-60
2021/06/25 00:12:31;;;;;;;3.78;1.85;;;;;;;17.58;62.22;97289.00;5034723;28;20030;-59
2021/06/25 00:14:56;;;;;;;2.65;1.80;;;;;;;17.62;62.28;97286.78;5034468;28;20079;-60
2021/06/25 00:17:22;;;;;;;3.92;1.80;;;;;;;17.57;61.71;97285.44;5034549;28;20025;-60
2021/06/25 00:19:47;;;;;;;4.00;1.88;;;;;;;17.63;60.94;97285.78;5033537;28;20525;-60
2021/06/25 00:22:12;;;;;;;3.97;1.63;;;;;;;17.71;60.86;97280.34;5033286;28;20132;-60
2021/06/25 00:24:38;;;;;;;1.73;1.50;;;;;;;17.72;61.27;97284.78;5032851;28;20547;-60
2021/06/25 00:27:04;;;;;;;3.00;1.70;;;;;;;17.65;60.14;97292.75;5034245;28;20029;-60
2021/06/25 00:29:29;;;;;;;7.13;1.63;;;;;;;17.43;62.21;97287.97;5034386;28;20473;-60
2021/06/25 00:31:55;;;;;;;2.03;1.80;;;;;;;17.28;64.23;97298.66;5033964;28;20040;-60
2021/06/25 00:34:20;;;;;;;3.60;1.45;;;;;;;17.11;65.32;97285.03;5032805;28;20029;-60
2021/06/25 00:36:46;;;;;;;2.63;1.67;;;;;;;17.01;65.81;97282.47;5033129;28;20041;-60
2021/06/25 00:39:12;;;;;;;2.65;1.70;;;;;;;17.22;63.49;97275.69;5034022;28;20030;-59
2021/06/25 00:41:37;;;;;;;2.38;1.70;;;;;;;17.34;63.13;97273.50;5032024;28;20039;-60
2021/06/25 00:44:04;;;;;;;3.70;1.65;;;;;;;17.26;63.62;97277.06;5031865;28;20033;-60
2021/06/25 00:46:31;;;;;;;2.33;1.60;;;;;;;17.24;63.94;97285.38;5031760;28;20390;-60
2021/06/25 00:48:56;;;;;;;1.88;1.58;;;;;;;17.13;62.69;97276.69;5022084;28;20022;-61
2021/06/25 00:51:22;;;;;;;2.20;1.50;;;;;;;17.17;63.03;97295.25;5029519;28;20327;-60
2021/06/25 00:53:47;;;;;;;2.70;1.70;;;;;;;16.97;64.35;97293.81;5012865;28;20547;-60
2021/06/25 00:56:13;;;;;;;1.92;1.60;;;;;;;16.90;64.59;97299.03;5014218;28;20033;-60
2021/06/25 00:58:39;;;;;;;4.30;1.70;;;;;;;16.92;64.64;97298.91;5029084;28;20120;-60
2021/06/25 01:01:05;;;;;;;2.70;1.60;;;;;;;17.00;63.62;97290.78;5013816;28;20156;-60
2021/06/25 01:03:31;;;;;;;2.25;1.70;;;;;;;17.06;63.77;97296.41;5013990;28;20109;-61
2021/06/25 01:05:56;;;;;;;5.05;2.00;;;;;;;17.09;64.18;97289.78;5013738;28;20378;-60
2021/06/25 01:08:22;;;;;;;2.33;1.90;;;;;;;16.99;65.32;97286.34;5013077;28;20025;-60
2021/06/25 01:10:48;;;;;;;3.42;2.00;;;;;;;16.87;65.51;97286.59;5012467;28;20052;-59
2021/06/25 01:13:14;;;;;;;3.88;2.00;;;;;;;16.84;65.95;97297.81;5029063;28;20022;-60
2021/06/25 01:15:39;;;;;;;4.63;2.20;;;;;;;16.77;67.16;97295.91;5013636;28;20030;-59
2021/06/25 01:18:05;;;;;;;4.35;2.10;;;;;;;16.66;67.99;97297.94;5014021;28;20093;-60
2021/06/25 01:20:32;;;;;;;5.20;2.10;;;;;;;16.55;68.19;97298.19;5013817;28;20020;-60
2021/06/25 01:22:58;;;;;;;2.67;2.00;;;;;;;16.59;68.58;97299.56;5013568;28;20046;-60
2021/06/25 01:25:32;;;;;;;2.47;1.88;;;;;;;16.62;68.34;97292.97;5013491;28;20376;-60
2021/06/25 01:28:01;;;;;;;4.28;2.22;;;;;;;16.70;68.35;97293.88;5013496;28;20022;-60
2021/06/25 01:30:29;;;;;;;7.25;2.67;;;;;;;16.81;67.11;97292.72;5028810;28;20433;-60
2021/06/25 01:32:55;;;;;;;3.65;2.35;;;;;;;16.84;66.95;97292.38;5013502;28;20505;-60
2021/06/25 01:35:21;;;;;;;6.38;2.50;;;;;;;16.89;66.96;97287.34;4995633;28;20034;-60
2021/06/25 01:37:47;;;;;;;6.70;2.53;;;;;;;16.77;67.63;97285.91;5013710;28;20067;-60
2021/06/25 01:40:15;;;;;;;4.85;2.50;;;;;;;16.67;68.58;97282.47;5013705;28;20029;-60
2021/06/25 01:42:42;;;;;;;4.07;2.63;;;;;;;16.64;69.06;97283.66;5028896;28;20053;-60
2021/06/25 01:45:26;;;;;;;5.40;2.53;;;;;;;16.64;70.00;97278.22;5013342;28;20018;-60
2021/06/25 01:47:52;;;;;;;6.20;2.90;;;;;;;16.56;70.32;97276.31;5028957;28;20022;-60
2021/06/25 01:50:23;;;;;;;6.03;2.80;;;;;;;16.49;71.23;97280.69;5028599;28;20022;-60
2021/06/25 01:52:56;;;;;;;7.10;2.92;;;;;;;16.66;70.62;97281.63;5013953;28;20463;-60
2021/06/25 01:55:21;;;;;;;4.53;2.75;;;;;;;16.69;70.26;97280.47;5012073;28;20026;-60
2021/06/25 01:57:47;;;;;;;4.97;2.70;;;;;;;16.62;71.26;97279.41;5013821;28;20022;-60
2021/06/25 02:00:13;;;;;;;9.60;3.20;;;;;;;16.68;70.08;97278.75;5023358;28;20100;-59
2021/06/25 02:02:39;;;;;;;3.78;2.67;;;;;;;16.72;69.78;97274.69;5032220;28;20206;-59
2021/06/25 02:05:07;;;;;;;6.53;2.80;;;;;;;16.74;69.97;97269.94;5032234;28;20018;-59
2021/06/25 02:07:32;;;;;;;5.18;2.95;;;;;;;16.64;70.55;97270.06;5032883;28;20059;-59
2021/06/25 02:09:58;;;;;;;4.78;2.90;;;;;;;16.46;71.02;97281.03;5032704;28;20022;-60
2021/06/25 02:12:24;;;;;;;6.22;2.70;;;;;;;16.48;71.08;97267.28;5032799;28;20092;-59
2021/06/25 02:14:50;;;;;;;5.90;3.10;;;;;;;16.64;70.51;97264.63;5032652;28;20053;-59
2021/06/25 02:17:18;;;;;;;9.02;2.80;;;;;;;16.55;70.18;97262.91;5032418;28;20053;-60
2021/06/25 02:19:44;;;;;;;6.05;2.70;;;;;;;16.68;69.04;97259.75;5032592;28;20516;-60
2021/06/25 02:22:10;;;;;;;5.10;2.70;;;;;;;16.78;68.49;97254.16;5032206;28;20073;-59
2021/06/25 02:24:35;;;;;;;5.35;2.70;;;;;;;16.72;70.26;97259.22;5031412;28;20485;-60
2021/06/25 02:27:01;;;;;;;6.15;2.90;;;;;;;16.42;70.34;97254.38;5031397;28;20053;-59
2021/06/25 02:29:26;;;;;;;4.45;2.50;;;;;;;16.31;70.57;97253.63;5031487;28;20045;-59
2021/06/25 02:31:52;;;;;;;5.75;2.65;;;;;;;16.36;70.90;97250.44;5031492;28;20035;-59
2021/06/25 02:34:18;;;;;;;5.45;2.50;;;;;;;16.47;69.08;97241.16;5032485;28;20025;-59
2021/06/25 02:36:43;;;;;;;4.53;2.30;;;;;;;16.67;67.42;97239.88;5031831;28;20431;-59
2021/06/25 02:39:09;;;;;;;4.25;2.20;;;;;;;16.90;65.69;97234.72;5031337;28;20087;-59
2021/06/25 02:41:35;;;;;;;2.95;2.17;;;;;;;17.05;65.13;97236.78;5032230;28;20477;-59
2021/06/25 02:44:01;;;;;;;5.88;2.67;;;;;;;17.10;65.65;97225.41;5031075;28;20030;-59
2021/06/25 02:46:26;;;;;;;6.80;2.70;;;;;;;17.11;65.61;97230.69;5031903;28;20120;-59
2021/06/25 02:48:52;;;;;;;5.10;2.30;;;;;;;17.01;65.75;97233.56;5034430;28;20454;-59
2021/06/25 02:51:17;;;;;;;3.78;2.30;;;;;;;16.84;67.06;97238.06;5035738;28;20029;-59
2021/06/25 02:53:42;;;;;;;4.03;2.30;;;;;;;16.61;69.00;97229.69;5035155;28;20025;-60
2021/06/25 02:56:08;;;;;;;5.45;2.60;;;;;;;16.47;69.45;97238.44;5035402;28;20371;-59
2021/06/25 02:58:33;;;;;;;5.35;2.53;;;;;;;16.40;69.34;97240.97;5034299;28;20040;-61
2021/06/25 03:00:59;;;;;;;6.40;2.33;;;;;;;16.28;69.94;97236.84;5035719;28;20116;-59
2021/06/25 03:03:24;;;;;;;2.92;2.30;;;;;;;16.30;69.02;97232.94;5034428;28;20069;-59
2021/06/25 03:05:51;;;;;;;4.13;2.42;;;;;;;16.32;68.97;97230.06;5035468;28;20112;-59
2021/06/25 03:08:17;;;;;;;4.18;2.40;;;;;;;16.27;70.02;97230.53;5034364;28;20025;-59
2021/06/25 03:10:43;;;;;;;4.85;2.30;;;;;;;16.16;70.14;97230.84;5035169;28;20022;-59
2021/06/25 03:13:09;;;;;;;4.45;2.38;;;;;;;16.07;70.31;97221.78;5035334;28;20104;-59
2021/06/25 03:15:35;;;;;;;4.35;2.30;;;;;;;16.04;70.13;97224.84;5034261;28;20026;-59
2021/06/25 03:18:01;;;;;;;4.93;2.30;;;;;;;16.02;70.33;97232.28;5035349;28;20101;-59
2021/06/25 03:20:26;;;;;;;4.95;2.20;;;;;;;16.08;69.74;97228.09;5035439;28;20021;-59
2021/06/25 03:22:51;;;;;;;4.30;2.53;;;;;;;16.18;69.25;97234.22;5034703;28;20041;-59
2021/06/25 03:25:17;;;;;;;7.13;2.33;;;;;;;16.26;70.31;97231.56;5033878;28;20087;-59
2021/06/25 03:27:42;;;;;;;5.72;2.47;;;;;;;16.13;70.82;97248.28;5035061;28;20045;-59
2021/06/25 03:30:09;;;;;;;5.85;2.67;;;;;;;15.67;72.46;97251.19;5035017;28;20442;-59
2021/06/25 03:32:35;;;;;;;4.95;2.75;;;;;;;15.54;73.66;97250.75;5035138;28;20144;-59
2021/06/25 03:35:03;;;;;;;3.88;2.70;;;;;;;15.55;73.46;97250.59;5033825;28;20029;-59
2021/06/25 03:37:28;;;;;;;4.53;3.00;;;;;;;15.48;73.44;97244.06;5032674;28;20029;-59
2021/06/25 03:39:54;;;;;;;7.50;2.95;;;;;;;15.52;72.77;97237.31;5033244;28;20033;-59
2021/06/25 03:42:19;;;;;;;6.90;2.50;;;;;;;15.63;72.33;97247.06;5034785;28;20037;-59
2021/06/25 03:44:44;;;;;;;3.00;2.38;;;;;;;15.79;70.85;97238.19;5034933;28;20030;-59
2021/06/25 03:47:10;;;;;;;3.67;2.17;;;;;;;15.87;68.99;97249.16;5034415;28;20025;-59
2021/06/25 03:49:35;;;;;;;5.32;2.17;;;;;;;15.96;68.88;97246.50;5034764;28;20030;-59
2021/06/25 03:52:01;;;;;;;5.55;1.92;;;;;;;15.97;68.58;97245.50;5031866;28;20033;-59
2021/06/25 03:54:26;;;;;;;3.33;1.80;;;;;;;16.01;67.89;97252.28;5032439;28;20091;-59
2021/06/25 03:56:52;;;;;;;3.65;1.70;;;;;;;16.08;67.33;97250.63;5034684;28;20398;-59
2021/06/25 03:59:17;;;;;;;3.25;1.95;;;;;;;16.05;69.11;97256.38;5034031;28;20048;-60
2021/06/25 04:01:43;;;;;;;4.18;2.25;;;;;;;15.99;69.80;97238.88;5032861;28;20462;-59
2021/06/25 04:04:09;;;;;;;3.45;2.22;;;;;;;16.08;69.70;97238.94;5033954;28;20154;-60
2021/06/25 04:06:34;;;;;;;5.10;2.03;;;;;;;15.86;71.48;97243.88;5034350;28;20029;-59
2021/06/25 04:08:59;;;;;;;4.78;2.10;;;;;;;15.79;71.64;97242.78;5034336;28;20025;-59
2021/06/25 04:11:25;;;;;;;6.30;2.58;;;;;;;15.68;72.24;97243.88;5034061;28;20465;-59
2021/06/25 04:13:50;;;;;;;5.93;2.17;;;;;;;15.81;71.55;97254.38;5032751;28;20043;-59
2021/06/25 04:16:16;;;;;;;4.25;2.10;;;;;;;15.79;72.00;97261.75;5032635;28;20033;-59
2021/06/25 04:18:42;;;;;;;5.80;2.50;;;;;;;15.67;72.64;97255.72;5033855;28;20017;-60
2021/06/25 04:21:07;;;;;;;5.32;2.50;;;;;;;15.70;72.85;97268.97;5033745;28;20069;-59
2021/06/25 04:23:33;;;;;;;4.50;2.50;;;;;;;15.66;73.28;97259.44;5033564;28;20029;-60
2021/06/25 04:25:59;;;;;;;5.18;2.50;;;;;;;15.67;72.19;97259.31;5032506;28;20040;-60
2021/06/25 04:28:25;;;;;;;4.45;2.03;;;;;;;15.87;70.82;97248.28;5033627;28;20109;-60
2021/06/25 04:30:51;;;;;;;4.35;2.47;;;;;;;15.93;71.68;97250.38;5033582;28;20060;-60
2021/06/25 04:33:16;;;;;;;4.95;2.75;;;;;;;15.93;71.72;97252.22;5033837;28;20083;-60
2021/06/25 04:35:43;;;;;;;6.85;2.40;;;;;;;15.85;72.15;97248.44;5032591;28;20022;-60
2021/06/25 04:38:09;;;;;;;5.30;2.45;;;;;;;15.77;72.61;97244.78;5033143;28;20021;-59
2021/06/25 04:40:37;;;;;;;3.47;2.28;;;;;;;15.75;72.77;97250.38;5032111;28;20363;-59
2021/06/25 04:43:03;;;;;;;4.97;2.40;;;;;;;15.69;72.94;97238.31;5032881;28;20508;-59
2021/06/25 04:45:28;;;;;;;3.90;2.35;;;;;;;15.84;71.07;97241.31;5031995;28;20060;-59
2021/06/25 04:47:54;;;;;;;2.67;2.00;;;;;;;15.96;70.27;97246.50;5031462;28;20025;-60
2021/06/25 04:50:19;;;;;;;3.42;2.03;;;;;;;16.00;69.37;97256.00;5029769;28;20048;-59
2021/06/25 04:52:45;;;;;;;5.95;2.30;;;;;;;16.10;68.93;97250.47;5031943;28;20459;-59
2021/06/25 04:55:10;;;;;;;4.50;2.10;;;;;;;16.15;68.68;97251.66;5029207;28;20017;-59
2021/06/25 04:57:39;;;;;;;5.57;2.35;;;;;;;16.18;68.87;97250.50;5033161;28;20061;-59
2021/06/25 05:00:07;;;;;;;6.07;2.20;;;;;;;16.12;69.55;97251.16;5033591;28;20070;-59
2021/06/25 05:02:32;;;;;;;3.38;2.20;;;;;;;16.04;69.33;97254.69;5031427;28;20025;-61
2021/06/25 05:04:57;;;;;;;4.68;2.25;;;;;;;16.15;69.32;97242.69;5031363;28;20037;-60
2021/06/25 05:07:23;;;;;;;3.50;2.10;;;;;;;16.20;68.22;97237.63;5031185;28;20031;-60
2021/06/25 05:09:48;;;;;;;3.80;2.00;;;;;;;16.33;66.97;97239.91;5031472;28;20022;-60
2021/06/25 05:12:14;;;;;;;6.68;2.13;;;;;;;16.42;65.98;97238.91;5032134;28;20029;-60
2021/06/25 05:14:40;;;;;;;2.92;1.92;;;;;;;16.50;65.27;97235.38;5031290;28;20485;-60
2021/06/25 05:17:05;;;;;;;4.72;2.10;;;;;;;16.57;64.62;97229.16;5029564;28;20540;-58
2021/06/25 05:19:30;;;;;;;2.03;1.80;;;;;;;16.66;64.02;97224.63;5030617;28;20026;-57
2021/06/25 05:21:56;;;;;;;5.60;2.00;;;;;;;16.71;63.31;97232.25;5030123;28;20050;-58
2021/06/25 05:24:22;;;;;;;2.95;1.80;;;;;;;16.78;61.93;97224.28;5031732;28;20045;-59
2021/06/25 05:26:48;;;;;;;2.20;1.70;;;;;;;16.77;62.33;97220.75;5026211;28;20029;-58
2021/06/25 05:29:13;;;;;;;3.88;1.88;;;;;;;16.89;61.88;97224.00;5025222;28;20021;-58
2021/06/25 05:31:39;;;;;;;3.28;1.80;;;;;;;16.90;62.39;97215.72;5027406;28;20029;-58
2021/06/25 05:34:04;;;;;;;2.83;1.85;;;;;;;16.75;64.50;97217.31;5029516;28;20033;-58
2021/06/25 05:36:30;;;;;;;2.92;1.80;;;;;;;16.77;64.72;97209.88;5029510;28;20037;-58
2021/06/25 05:38:55;;;;;;;3.97;1.80;;;;;;;16.94;64.95;97212.66;5032384;28;20038;-59
2021/06/25 05:41:20;;;;;;;2.53;1.70;;;;;;;17.00;64.66;97206.56;5032652;28;20029;-59
2021/06/25 05:43:46;;;;;;;2.75;1.80;;;;;;;17.12;63.32;97199.78;5032431;28;20408;-59
2021/06/25 05:46:12;;;;;;;3.97;1.80;;;;;;;17.21;62.90;97196.03;5032636;28;20477;-58
2021/06/25 05:48:38;;;;;;;2.97;1.85;;;;;;;17.33;62.30;97204.72;5030219;28;20131;-58
2021/06/25 05:51:05;;;;;;;3.00;1.88;;;;;;;17.39;62.63;97204.03;5031534;28;20029;-58
2021/06/25 05:53:31;;;;;;;4.72;2.10;;;;;;;17.57;62.75;97206.56;5029432;28;20509;-59
2021/06/25 05:55:56;;;;;;;5.80;2.25;;;;;;;17.68;63.06;97201.81;5030353;28;20026;-58
2021/06/25 05:58:22;;;;;;;4.88;1.77;;;;;;;17.87;62.01;97211.47;5029036;28;20448;-59
2021/06/25 06:00:47;;;;;;;3.47;1.90;;;;;;;17.90;62.49;97206.53;5029736;28;20065;-59
2021/06/25 06:03:13;;;;;;;2.83;1.90;;;;;;;18.00;62.56;97206.38;5029390;28;20052;-58
2021/06/25 06:05:38;;;;;;;3.63;1.80;;;;;;;18.15;62.56;97211.94;5030918;28;20105;-59
2021/06/25 06:08:04;;;;;;;3.13;1.88;;;;;;;18.14;62.94;97214.84;5031014;28;20465;-58
2021/06/25 06:10:30;;;;;;;3.80;1.73;;;;;;;18.14;62.42;97212.97;5032274;28;20061;-58
2021/06/25 06:12:55;;;;;;;4.40;1.60;;;;;;;18.14;61.36;97212.97;5030750;28;20363;-58
2021/06/25 06:15:21;;;;;;;3.35;1.85;;;;;;;18.45;62.32;97217.59;5030048;28;20108;-59
2021/06/25 06:17:49;;;;;;;3.42;1.92;;;;;;;18.34;63.66;97216.13;5030603;28;20029;-59
2021/06/25 06:20:24;;;;;;;3.70;2.00;;;;;;;18.33;64.71;97216.31;5030350;28;20393;-59
2021/06/25 06:31:18;;;;;;;6.03;2.00;;;;;;;18.90;62.71;97213.34;5034888;28;20112;-59
2021/06/25 06:33:49;;;;;;;4.30;2.10;;;;;;;19.04;61.32;97221.75;5035113;28;20160;-59
2021/06/25 06:36:30;;;;;;;2.95;1.98;;;;;;;18.97;62.08;97223.53;5018774;28;20037;-59
2021/06/25 06:38:57;;;;;;;4.35;2.10;;;;;;;18.99;61.08;97216.88;5034757;28;20028;-60
2021/06/25 06:41:23;;;;;;;3.00;1.90;;;;;;;18.70;61.21;97217.50;5033733;28;20025;-58
2021/06/25 06:43:48;;;;;;;3.85;1.85;;;;;;;19.04;60.40;97219.91;5033807;28;20069;-58
2021/06/25 06:46:14;;;;;;;4.90;1.90;;;;;;;19.29;59.98;97217.00;5034353;28;20359;-59
2021/06/25 06:48:42;;;;;;;6.32;2.10;;;;;;;19.36;58.90;97220.72;5034664;28;20098;-59
2021/06/25 06:51:08;;;;;;;2.75;1.92;;;;;;;19.29;59.17;97221.63;5033167;28;20497;-59
2021/06/25 06:53:34;;;;;;;4.10;1.80;;;;;;;19.36;58.88;97217.97;5034817;28;20030;-58
2021/06/25 06:55:59;;;;;;;4.50;1.88;;;;;;;19.50;58.27;97224.50;5035594;28;20021;-58
2021/06/25 06:58:26;;;;;;;3.35;1.85;;;;;;;19.63;58.97;97223.03;5034766;28;20029;-58
2021/06/25 07:00:52;;;;;;;5.15;2.30;;;;;;;19.74;59.43;97225.34;5015444;28;20604;-59
2021/06/25 07:03:17;;;;;;;2.25;1.88;;;;;;;19.81;58.50;97220.84;5031640;28;20029;-58
2021/06/25 07:05:42;;;;;;;1.95;1.75;;;;;;;19.84;57.46;97223.25;5034701;28;20079;-57
2021/06/25 07:08:08;;;;;;;5.13;2.17;;;;;;;19.75;58.05;97229.78;5050863;28;20052;-58
2021/06/25 07:10:33;;;;;;;4.95;2.80;;;;;;;19.92;58.41;97230.47;5041403;28;20020;-58
2021/06/25 07:12:58;;;;;;;5.30;2.63;;;;;;;20.10;60.01;97230.13;5043803;28;20030;-58
2021/06/25 07:15:24;;;;;;;6.13;2.75;;;;;;;20.12;61.38;97236.25;5048283;28;20386;-58
2021/06/25 07:17:49;;;;;;;5.13;2.90;;;;;;;20.20;60.38;97238.91;5036561;28;20036;-58
2021/06/25 07:20:15;;;;;;;6.30;2.90;;;;;;;20.30;60.33;97230.44;5049513;28;20033;-58
2021/06/25 07:22:41;;;;;;;5.65;2.83;;;;;;;20.31;61.42;97239.47;5036684;28;20046;-58
2021/06/25 07:25:07;;;;;;;5.35;2.63;;;;;;;20.44;59.27;97236.91;5046240;28;20052;-58
2021/06/25 07:27:32;;;;;;;4.60;2.40;;;;;;;20.45;59.63;97246.81;5039994;28;20075;-58
2021/06/25 07:29:58;;;;;;;5.47;3.00;;;;;;;20.59;59.73;97253.31;5048865;28;20033;-58
2021/06/25 07:32:23;;;;;;;6.15;2.80;;;;;;;20.60;59.12;97248.69;5037668;28;20057;-58
2021/06/25 07:34:49;;;;;;;6.32;2.50;;;;;;;20.72;58.77;97245.34;5043534;28;20034;-59
2021/06/25 07:37:14;;;;;;;6.55;2.83;;;;;;;20.70;58.03;97250.13;5044834;28;20017;-59
2021/06/25 07:39:40;;;;;;;7.07;3.05;;;;;;;20.73;58.45;97247.00;5036111;28;20021;-58
2021/06/25 07:42:05;;;;;;;6.00;2.88;;;;;;;20.82;58.61;97236.00;5046182;28;20548;-58
2021/06/25 07:44:31;;;;;;;5.78;2.80;;;;;;;20.92;57.52;97235.69;5040136;28;20017;-58
2021/06/25 07:46:56;;;;;;;9.45;2.92;;;;;;;20.94;57.62;97233.59;5044337;28;20037;-58
2021/06/25 07:49:22;;;;;;;5.68;3.00;;;;;;;21.00;57.23;97233.66;5047931;28;20395;-58
2021/06/25 07:51:48;;;;;;;5.05;3.00;;;;;;;21.00;56.32;97238.31;5037781;28;20033;-58
2021/06/25 07:54:14;;;;;;;5.63;2.78;;;;;;;20.97;56.51;97244.16;5050097;28;20083;-58
2021/06/25 07:56:39;;;;;;;4.90;2.78;;;;;;;21.05;56.75;97241.31;5042010;28;20028;-58
2021/06/25 07:59:05;;;;;;;4.60;3.10;;;;;;;21.19;57.78;97245.03;5042993;28;20113;-59
2021/06/25 08:01:30;;;;;;;8.70;3.13;;;;;;;21.16;56.05;97239.94;5048932;28;20385;-58
2021/06/25 08:03:55;;;;;;;5.50;2.80;;;;;;;21.23;56.07;97246.34;5036145;28;20037;-58
2021/06/25 08:06:21;;;;;;;5.85;2.90;;;;;;;21.11;55.97;97250.63;5048954;28;20091;-58
2021/06/25 08:08:46;;;;;;;5.40;2.75;;;;;;;21.34;55.99;97250.44;5042753;28;20100;-58
2021/06/25 08:11:12;;;;;;;6.45;3.13;;;;;;;21.53;56.48;97246.25;5041838;28;20025;-58
2021/06/25 08:13:37;;;;;;;5.88;2.72;;;;;;;21.52;55.12;97248.09;5049723;28;20028;-58
2021/06/25 08:16:03;;;;;;;4.20;2.30;;;;;;;21.61;54.38;97250.78;5036992;28;20029;-58
2021/06/25 08:18:28;;;;;;;8.00;2.80;;;;;;;21.78;52.80;97248.59;5047508;28;20030;-58
2021/06/25 08:20:54;;;;;;;6.13;2.33;;;;;;;21.50;52.81;97257.56;5041711;28;20455;-58
2021/06/25 08:23:20;;;;;;;4.70;2.30;;;;;;;21.45;52.18;97249.09;5038917;28;20060;-58
2021/06/25 08:25:46;;;;;;;4.95;2.10;;;;;;;21.65;52.11;97246.59;5050311;28;20056;-58
2021/06/25 08:28:12;;;;;;;3.78;2.30;;;;;;;21.67;52.34;97234.41;5037558;28;20091;-58
2021/06/25 08:30:37;;;;;;;3.88;2.33;;;;;;;21.78;50.98;97238.50;5044987;28;20462;-58
2021/06/25 08:33:03;;;;;;;3.15;2.17;;;;;;;21.84;50.34;97232.22;5044556;28;20075;-58
2021/06/25 08:35:28;;;;;;;4.88;2.00;;;;;;;21.65;51.89;97239.22;5038926;28;20060;-58
2021/06/25 08:37:54;;;;;;;4.30;2.17;;;;;;;21.85;51.15;97238.56;5048559;28;20132;-58
2021/06/25 08:40:20;;;;;;;5.53;2.53;;;;;;;22.13;50.68;97230.34;5038725;28;20025;-58
2021/06/25 08:42:46;;;;;;;6.18;2.40;;;;;;;22.21;49.84;97232.91;5043475;28;20029;-58
2021/06/25 08:45:13;;;;;;;7.35;2.30;;;;;;;22.32;50.63;97238.91;5043503;28;20388;-58
2021/06/25 08:47:40;;;;;;;4.32;2.30;;;;;;;22.28;49.18;97232.97;5037494;28;20052;-58
2021/06/25 08:50:08;;;;;;;6.43;2.28;;;;;;;21.99;48.65;97234.03;5037019;28;20118;-58
2021/06/25 08:52:34;;;;;;;7.72;2.17;;;;;;;21.95;49.06;97238.22;5045183;28;20560;-58
2021/06/25 08:54:59;;;;;;;3.92;2.20;;;;;;;22.10;49.63;97227.16;5042143;28;20104;-58
2021/06/25 08:57:24;;;;;;;8.15;2.30;;;;;;;22.42;49.77;97239.41;5039460;28;20026;-58
2021/06/25 08:59:51;;;;;;;3.30;1.90;;;;;;;22.54;48.79;97243.28;5049589;28;20066;-58
2021/06/25 09:02:17;;;;;;;5.60;2.10;;;;;;;22.54;48.46;97250.63;5037354;28;20108;-58
2021/06/25 09:04:46;;;;;;;3.17;1.80;;;;;;;22.65;47.39;97247.34;5043776;28;20028;-58
2021/06/25 09:07:12;;;;;;;4.90;2.10;;;;;;;22.82;46.46;97239.63;5045127;28;20025;-58
2021/06/25 09:09:45;;;;;;;6.13;1.92;;;;;;;22.55;48.44;97239.50;5037421;28;20025;-58
2021/06/25 09:12:23;;;;;;;2.40;1.88;;;;;;;22.50;45.62;97242.00;5020185;28;20128;-58
2021/06/25 09:15:05;;;;;;;2.90;1.90;;;;;;;22.28;47.98;97240.34;5044023;28;20025;-58
2021/06/25 09:17:32;;;;;;;3.10;1.80;;;;;;;22.43;45.71;97243.00;5047578;28;20116;-58
2021/06/25 09:19:58;;;;;;;3.30;1.80;;;;;;;22.53;45.03;97235.28;5034963;28;20028;-58
2021/06/25 09:22:24;;;;;;;3.13;1.85;;;;;;;22.84;44.62;97243.00;5045945;28;20045;-58
2021/06/25 09:25:07;;;;;;;2.88;1.85;;;;;;;22.95;45.35;97233.34;5040521;28;20507;-58
2021/06/25 09:27:33;;;;;;;3.72;1.88;;;;;;;23.08;46.41;97236.13;5036585;28;20424;-58
2021/06/25 09:30:06;;;;;;;3.17;1.80;;;;;;;23.05;46.82;97235.72;5049241;28;20036;-58
2021/06/25 09:32:39;;;;;;;2.58;1.60;;;;;;;23.12;43.83;97236.56;5039389;28;20111;-59
2021/06/25 09:35:13;;;;;;;4.07;1.70;;;;;;;23.18;45.10;97234.94;5041585;28;20102;-59
2021/06/25 09:37:44;;;;;;;5.15;1.70;;;;;;;22.98;44.27;97235.69;5048763;28;20075;-59
2021/06/25 09:40:10;;;;;;;2.78;1.70;;;;;;;23.02;43.89;97234.22;5018902;28;20044;-58
2021/06/25 09:42:38;;;;;;;4.10;1.80;;;;;;;23.14;43.98;97236.38;5027392;28;20049;-59
2021/06/25 09:45:11;;;;;;;1.40;1.30;;;;;;;23.06;43.31;97241.00;5043552;28;20029;-59
2021/06/25 09:47:39;;;;;;;1.52;1.40;;;;;;;22.98;42.40;97234.81;5036990;28;20073;-58
2021/06/25 09:50:13;;;;;;;3.40;1.33;;;;;;;23.26;41.75;97237.47;5049021;28;20103;-59
2021/06/25 09:52:59;;;;;;;3.17;1.50;;;;;;;23.18;42.63;97229.44;5040103;28;20067;-58
2021/06/25 09:55:29;;;;;;;4.80;1.58;;;;;;;23.43;42.24;97232.44;5039792;28;20155;-59
2021/06/25 09:58:12;;;;;;;2.53;1.55;;;;;;;23.39;40.28;97228.44;5041078;28;20025;-59
2021/06/25 10:03:30;;;;;;;4.80;1.60;;;;;;;23.69;42.22;97228.03;5049553;28;20043;-59
2021/06/25 10:06:28;;;;;;;3.70;1.60;;;;;;;23.37;41.19;97230.53;5051869;28;20029;-60
2021/06/25 10:08:54;;;;;;;2.70;1.63;;;;;;;23.71;42.19;97228.69;5037997;28;20044;-60
2021/06/25 10:11:24;;;;;;;4.30;1.60;;;;;;;23.34;42.12;97230.97;5035782;28;20639;-59
2021/06/25 10:13:52;;;;;;;3.13;1.50;;;;;;;23.43;40.82;97221.47;5051549;28;20025;-59
2021/06/25 10:16:18;;;;;;;5.15;1.42;;;;;;;23.83;40.52;97221.50;5031961;28;20025;-59
2021/06/25 10:18:47;;;;;;;4.60;1.60;;;;;;;23.75;39.12;97232.72;5033630;28;20025;-59
2021/06/25 10:21:14;;;;;;;3.03;1.40;;;;;;;23.66;39.71;97226.56;5034051;28;20045;-59
2021/06/25 10:23:46;;;;;;;6.25;1.50;;;;;;;23.57;40.95;97223.19;5035925;28;20038;-58
2021/06/25 10:26:13;;;;;;;3.58;1.67;;;;;;;23.59;42.54;97225.72;5029052;28;20505;-59
2021/06/25 10:28:41;;;;;;;6.78;4.25;;;;;;;23.90;41.46;97233.38;5033159;28;20029;-59
2021/06/25 10:31:10;;;;;;;8.38;5.68;;;;;;;23.96;40.51;97234.44;5036618;28;20022;-59
2021/06/25 10:33:39;;;;;;;7.05;2.30;;;;;;;24.24;40.29;97225.13;5041872;28;20028;-60
2021/06/25 10:36:07;;;;;;;3.67;1.75;;;;;;;24.20;41.01;97224.69;5032556;28;20412;-59
2021/06/25 10:38:35;;;;;;;5.82;1.70;;;;;;;24.20;40.10;97229.34;5030796;28;20052;-59
2021/06/25 10:41:06;;;;;;;8.27;3.20;;;;;;;24.33;39.93;97231.22;5036441;28;20021;-58
2021/06/25 10:43:52;;;;;;;3.90;2.78;;;;;;;24.45;41.92;97224.00;5034444;28;20040;-58
2021/06/25 10:46:33;;;;;;;6.25;3.30;;;;;;;24.53;41.15;97229.28;5053941;28;20096;-59
2021/06/25 10:49:04;;;;;;;7.30;3.28;;;;;;;24.75;40.95;97229.03;5042002;28;20052;-59
2021/06/25 10:51:32;;;;;;;4.18;1.83;;;;;;;24.88;41.20;97230.88;5033683;28;20030;-59
2021/06/25 10:54:21;;;;;;;5.07;2.40;;;;;;;24.74;40.79;97225.44;5047960;28;20377;-59
2021/06/25 10:56:49;;;;;;;2.45;1.73;;;;;;;24.65;41.29;97226.75;5043319;28;20416;-58
2021/06/25 10:59:27;;;;;;;3.92;1.60;;;;;;;24.61;42.22;97219.09;5042419;28;20044;-58
2021/06/25 11:01:58;;;;;;;3.03;1.60;;;;;;;24.34;40.85;97220.00;5051448;28;20021;-58
2021/06/25 11:04:44;;;;;;;3.05;1.67;;;;;;;24.32;41.77;97222.16;5033959;28;20116;-57
2021/06/25 11:07:28;;;;;;;4.57;1.60;;;;;;;24.44;40.72;97222.34;5031075;28;20036;-56
2021/06/25 11:09:56;;;;;;;5.45;1.50;;;;;;;24.60;40.03;97221.03;5036039;28;20029;-56
2021/06/25 11:12:30;;;;;;;4.88;1.50;;;;;;;24.46;38.68;97211.94;5046332;28;20104;-57
2021/06/25 11:15:16;;;;;;;2.60;1.48;;;;;;;24.87;39.23;97213.53;5028352;28;20385;-56
2021/06/25 11:17:52;;;;;;;2.90;1.60;;;;;;;25.10;39.10;97206.66;5034418;28;20029;-57
2021/06/25 11:20:22;;;;;;;7.53;1.70;;;;;;;25.21;39.64;97205.97;5043882;28;20029;-55
2021/06/25 11:22:52;;;;;;;5.00;1.67;;;;;;;25.03;38.82;97205.88;5041346;28;20049;-56
2021/06/25 11:25:36;;;;;;;1.70;1.50;;;;;;;24.60;39.41;97209.16;5036846;28;20025;-55
2021/06/25 11:28:22;;;;;;;1.63;1.50;;;;;;;24.74;40.77;97210.84;5043255;28;20034;-56
2021/06/25 11:30:51;;;;;;;3.28;1.88;;;;;;;24.78;39.27;97203.84;5030113;28;20053;-55
2021/06/25 11:33:38;;;;;;;3.65;1.58;;;;;;;24.89;38.32;97197.69;5031037;28;20030;-55
2021/06/25 11:36:13;;;;;;;3.15;1.60;;;;;;;24.85;37.94;97201.06;5043614;28;20037;-55
2021/06/25 11:38:57;;;;;;;3.53;1.50;;;;;;;24.86;36.66;97189.00;5039078;28;20033;-56
2021/06/25 11:41:29;;;;;;;4.05;1.60;;;;;;;24.90;38.18;97196.59;5028786;28;20029;-58
2021/06/25 11:43:58;;;;;;;4.70;1.75;;;;;;;25.24;39.43;97194.53;5035034;28;20040;-57
2021/06/25 11:46:24;;;;;;;2.95;1.48;;;;;;;25.35;38.58;97194.94;5031343;28;20017;-56